Sensho — JG5609 — position and weather

sailwx.info

Track history (hours):
 
Tides and Currents Weather Stations Pressure Air Temp Water Temp Dewpoint Dewpoint Depression Visibility Wind Speed Wind Dir Waves Ship Positions

Sensho

Last reported at 2017-Dec-11 12:27 UTC. Time now 2017-Dec-12 12:30 UTC.
Position N 33°59' E 132°45'.

Length 81 m; draft 4 m.

Type: Cargo ship. MMSI: 431100886.

Date/timePositionNaut miles runAvg speedWind from/ knotsBaromVisibWave heightAir tempDewpointWater temp
2017-Dec-11 12:27N 33°59' E 132°45'612.6
2017-Dec-11 12:00N 33°55' E 132°39'1313.3
2017-Dec-11 11:00N 33°50' E 132°24'613.3
2017-Dec-11 10:30N 33°50' E 132°17'912.9
2017-Dec-11 09:51N 33°47' E 132°07'613.7
2017-Dec-11 09:23N 33°45' E 131°60'1114.2
2017-Dec-11 08:36N 33°46' E 131°47'114.3
2017-Dec-11 08:30N 33°47' E 131°45'714.4
2017-Dec-11 08:00N 33°48' E 131°36'714.3
2017-Dec-11 07:30N 33°50' E 131°28'714.4
2017-Dec-11 07:01N 33°51' E 131°20'713.9
2017-Dec-11 06:31N 33°53' E 131°12'713.7
2017-Dec-11 06:01N 33°57' E 131°04'611.5
2017-Dec-11 05:31N 33°58' E 130°58'510.7
2017-Dec-11 05:01N 33°54' E 130°53'0 0.4
2017-Dec-11 04:30N 33°54' E 130°53'0 0.0
2017-Dec-11 04:00N 33°54' E 130°53'0 0.0
2017-Dec-11 03:30N 33°54' E 130°53'0 0.0
2017-Dec-11 03:00N 33°54' E 130°53'0 0.0
2017-Dec-11 02:30N 33°54' E 130°53'0 0.0
2017-Dec-11 02:00N 33°54' E 130°53'0 0.0
2017-Dec-11 01:30N 33°54' E 130°53'0 0.0
2017-Dec-11 01:00N 33°54' E 130°53'0 0.0
2017-Dec-11 00:30N 33°54' E 130°53'0 0.0
2017-Dec-11 00:00N 33°54' E 130°53'0 0.0
2017-Dec-10 23:30N 33°54' E 130°53'0 0.0
2017-Dec-10 23:00N 33°54' E 130°53'0 0.0
2017-Dec-10 22:30N 33°54' E 130°53'3 5.6
2017-Dec-10 22:00N 33°55' E 130°56'510.1
2017-Dec-10 21:30N 33°59' E 131°00'612.2
2017-Dec-10 21:01N 33°55' E 131°06'612.2
2017-Dec-10 20:30N 33°53' E 131°13'612.2
2017-Dec-10 20:00N 33°51' E 131°20'612.2
2017-Dec-10 19:30N 33°50' E 131°28'612.1
2017-Dec-10 19:01N 33°49' E 131°35'612.3
2017-Dec-10 18:29N 33°48' E 131°42'612.6
2017-Dec-10 18:00N 33°47' E 131°49'1012.8
2017-Dec-10 17:15N 33°46' E 132°01'913.1
2017-Dec-10 16:34N 33°49' E 132°11'913.4
2017-Dec-10 15:55N 33°50' E 132°21'613.3
2017-Dec-10 15:29N 33°52' E 132°28'713.7
2017-Dec-10 15:00N 33°54' E 132°35'713.5
2017-Dec-10 14:31N 33°58' E 132°42'7312.2
2017-Dec-10 08:33N 34°27' E 134°02'812.6
2017-Dec-10 07:55N 34°25' E 134°12'813.2
2017-Dec-10 07:19N 34°25' E 134°22'514.2
2017-Dec-10 06:58N 34°27' E 134°27'714.2
2017-Dec-10 06:29N 34°30' E 134°35'714.4
2017-Dec-10 06:00N 34°32' E 134°43'815.7
2017-Dec-10 05:30N 34°35' E 134°52'816.0
2017-Dec-10 05:01N 34°37' E 135°01'714.8
2017-Dec-10 04:30N 34°36' E 135°10'713.9
2017-Dec-10 04:01N 34°36' E 135°18'713.4
2017-Dec-10 03:30N 34°35' E 135°26'1 2.0
2017-Dec-10 03:00N 34°34' E 135°27'0 0.0
2017-Dec-10 02:27N 34°34' E 135°27'0 0.0
2017-Dec-10 01:57N 34°34' E 135°27'0 0.0
2017-Dec-10 01:30N 34°34' E 135°27'0 0.0
2017-Dec-10 01:00N 34°34' E 135°27'0 0.0
2017-Dec-10 00:30N 34°34' E 135°27'0 0.0
2017-Dec-10 00:00N 34°34' E 135°27'0 0.0
2017-Dec-09 23:27N 34°34' E 135°27'0 0.0
2017-Dec-09 22:57N 34°34' E 135°27'0 0.0
2017-Dec-09 22:30N 34°34' E 135°27'0 0.0
2017-Dec-09 22:00N 34°34' E 135°27'0 0.0
2017-Dec-09 21:27N 34°34' E 135°27'0 0.0
2017-Dec-09 20:57N 34°34' E 135°27'0 0.0
2017-Dec-09 20:27N 34°34' E 135°27'0 0.0
2017-Dec-09 19:57N 34°34' E 135°27'0 0.0
2017-Dec-09 19:30N 34°34' E 135°27'0 0.0
2017-Dec-09 19:00N 34°34' E 135°27'0 0.0
2017-Dec-09 18:30N 34°34' E 135°27'0 0.0
2017-Dec-09 17:57N 34°34' E 135°27'0 0.0
2017-Dec-09 17:30N 34°34' E 135°27'0 0.0
2017-Dec-09 17:00N 34°34' E 135°27'0 0.0
2017-Dec-09 16:30N 34°34' E 135°27'0 0.0
2017-Dec-09 16:00N 34°34' E 135°27'0 0.0
2017-Dec-09 15:27N 34°34' E 135°27'0 0.0
2017-Dec-09 14:57N 34°34' E 135°27'0 0.0
2017-Dec-09 14:30N 34°34' E 135°27'0 0.0
2017-Dec-09 14:00N 34°34' E 135°27'0 0.0
2017-Dec-09 13:30N 34°34' E 135°27'0 0.0
2017-Dec-09 13:00N 34°34' E 135°27'0 0.0
2017-Dec-09 12:30N 34°34' E 135°27'0 0.0
2017-Dec-09 11:57N 34°34' E 135°27'0 0.0
2017-Dec-09 11:27N 34°34' E 135°27'0 0.0
2017-Dec-09 11:00N 34°34' E 135°27'0 0.0
2017-Dec-09 10:30N 34°34' E 135°27'0 0.0
2017-Dec-09 09:57N 34°34' E 135°27'0 0.0
2017-Dec-09 09:27N 34°34' E 135°27'0 0.0
2017-Dec-09 08:57N 34°34' E 135°27'0 0.0
2017-Dec-09 08:21N 34°34' E 135°27'0 0.0
2017-Dec-09 07:57N 34°34' E 135°27'0 0.0
2017-Dec-09 07:27N 34°34' E 135°27'0 0.0
2017-Dec-09 06:54N 34°34' E 135°27'0 0.0
2017-Dec-09 06:27N 34°34' E 135°27'0 0.0
2017-Dec-09 05:57N 34°34' E 135°27'0 0.0
2017-Dec-09 05:27N 34°34' E 135°27'0 0.0
2017-Dec-09 05:00N 34°34' E 135°27'0 0.0
2017-Dec-09 04:30N 34°34' E 135°27'0 0.0
2017-Dec-09 04:00N 34°34' E 135°27'0 0.0
2017-Dec-09 03:27N 34°34' E 135°27'0 0.0
2017-Dec-09 03:00N 34°34' E 135°27'0 0.0
2017-Dec-09 02:27N 34°34' E 135°27'0 0.0
2017-Dec-09 01:57N 34°34' E 135°27'0 0.0
2017-Dec-09 01:30N 34°34' E 135°27'0 0.0
2017-Dec-09 00:57N 34°34' E 135°27'0 0.0
2017-Dec-09 00:30N 34°34' E 135°27'0 0.0
2017-Dec-08 23:57N 34°34' E 135°27'0 0.0
2017-Dec-08 23:30N 34°34' E 135°27'0 0.0
2017-Dec-08 22:57N 34°34' E 135°27'0 0.0
2017-Dec-08 22:27N 34°34' E 135°27'0 0.0
2017-Dec-08 22:00N 34°34' E 135°27'0 0.0
2017-Dec-08 21:27N 34°34' E 135°27'0 0.0
2017-Dec-08 20:57N 34°34' E 135°27'0 0.0
2017-Dec-08 20:30N 34°34' E 135°27'0 0.0
2017-Dec-08 20:00N 34°34' E 135°27'0 0.0
2017-Dec-08 19:30N 34°34' E 135°27'0 0.0
2017-Dec-08 18:57N 34°34' E 135°27'0 0.0
2017-Dec-08 18:30N 34°34' E 135°27'0 0.0
2017-Dec-08 17:57N 34°34' E 135°27'0 0.0
2017-Dec-08 17:30N 34°34' E 135°27'0 0.0
2017-Dec-08 16:54N 34°34' E 135°27'0 0.0
2017-Dec-08 16:30N 34°34' E 135°27'0 0.0
2017-Dec-08 16:00N 34°34' E 135°27'0 0.0
2017-Dec-08 15:30N 34°34' E 135°27'0 0.0
2017-Dec-08 15:00N 34°34' E 135°27'0 0.0
2017-Dec-08 14:30N 34°34' E 135°27'0 0.0
2017-Dec-08 14:00N 34°34' E 135°27'0 0.0
2017-Dec-08 13:30N 34°34' E 135°27'0 0.0
2017-Dec-08 12:57N 34°34' E 135°27'0 0.0
2017-Dec-08 12:30N 34°34' E 135°27'0 0.0
2017-Dec-08 11:57N 34°34' E 135°27'0 0.0
2017-Dec-08 11:27N 34°34' E 135°27'0 0.0
2017-Dec-08 11:00N 34°34' E 135°27'0 0.0
2017-Dec-08 10:30N 34°34' E 135°27'0 0.0
2017-Dec-08 10:00N 34°34' E 135°27'0 0.0
2017-Dec-08 09:30N 34°34' E 135°27'0 0.0
2017-Dec-08 09:00N 34°34' E 135°27'0 0.0
2017-Dec-08 08:30N 34°34' E 135°27'0 0.0
2017-Dec-08 08:00N 34°34' E 135°27'0 0.0
2017-Dec-08 07:30N 34°34' E 135°27'0 0.0
2017-Dec-08 07:00N 34°34' E 135°27'0 0.0
2017-Dec-08 06:27N 34°34' E 135°27'0 0.0
2017-Dec-08 05:57N 34°34' E 135°27'0 0.0
2017-Dec-08 05:30N 34°34' E 135°27'0 0.0
2017-Dec-08 05:00N 34°34' E 135°27'0 0.0
2017-Dec-08 04:30N 34°34' E 135°27'0 0.0
2017-Dec-08 04:00N 34°34' E 135°27'0 0.0
2017-Dec-08 03:30N 34°34' E 135°27'0 0.0
2017-Dec-08 03:00N 34°34' E 135°27'0 0.0
2017-Dec-08 02:30N 34°34' E 135°27'0 0.0
2017-Dec-08 02:00N 34°34' E 135°27'0 0.0
2017-Dec-08 01:30N 34°34' E 135°27'0 0.0
2017-Dec-08 01:00N 34°34' E 135°27'1 3.0
2017-Dec-08 00:31N 34°35' E 135°26'612.7
2017-Dec-08 00:00N 34°36' E 135°18'714.0
2017-Dec-07 23:30N 34°35' E 135°09'713.9
2017-Dec-07 23:01N 34°37' E 135°01'713.6
2017-Dec-07 22:30N 34°34' E 134°53'714.6
2017-Dec-07 22:00N 34°31' E 134°45'714.4
2017-Dec-07 21:30N 34°29' E 134°37'9713.7
2017-Dec-07 14:25N 33°60' E 132°45'614.9
2017-Dec-07 14:00N 33°56' E 132°40'1414.8
2017-Dec-07 13:06N 33°50' E 132°25'115.1
2017-Dec-07 13:00N 33°50' E 132°23'914.6
2017-Dec-07 12:22N 33°50' E 132°12'614.6
2017-Dec-07 11:57N 33°46' E 132°06'1213.4
2017-Dec-07 11:03N 33°46' E 131°51'114.1
2017-Dec-07 11:00N 33°46' E 131°50'713.8
2017-Dec-07 10:30N 33°48' E 131°42'713.8
2017-Dec-07 10:00N 33°49' E 131°34'713.8
2017-Dec-07 09:30N 33°50' E 131°26'714.0
2017-Dec-07 09:01N 33°52' E 131°18'714.2
2017-Dec-07 08:30N 33°54' E 131°10'714.0
2017-Dec-07 08:00N 33°57' E 131°03'611.9
2017-Dec-07 07:30N 33°55' E 130°56'3 5.8
2017-Dec-07 07:00N 33°54' E 130°53'0 0.0
2017-Dec-07 06:29N 33°54' E 130°53'0 0.0
2017-Dec-07 05:59N 33°54' E 130°53'0 0.0
2017-Dec-07 05:29N 33°54' E 130°53'0 0.0
2017-Dec-07 04:59N 33°54' E 130°53'0 0.0
2017-Dec-07 04:20N 33°54' E 130°53'0 0.0
2017-Dec-07 03:59N 33°54' E 130°53'0 0.0
2017-Dec-07 03:26N 33°54' E 130°53'0 0.0
2017-Dec-07 02:59N 33°54' E 130°53'0 0.0
2017-Dec-07 02:26N 33°54' E 130°53'0 0.0
2017-Dec-07 01:59N 33°54' E 130°53'0 0.1
2017-Dec-07 01:30N 33°54' E 130°53'611.5
2017-Dec-07 01:01N 33°58' E 130°58'713.1
2017-Dec-07 00:31N 33°56' E 131°05'714.8
2017-Dec-07 00:00N 33°53' E 131°13'815.1
2017-Dec-06 23:30N 33°52' E 131°22'815.0
2017-Dec-06 23:00N 33°50' E 131°31'815.1
2017-Dec-06 22:30N 33°49' E 131°40'814.9
2017-Dec-06 22:00N 33°47' E 131°49'1114.5
2017-Dec-06 21:15N 33°46' E 132°02'714.6
2017-Dec-06 20:44N 33°49' E 132°10'  
2017-Dec-04 10:28N 34°28' E 134°32'714.5
2017-Dec-04 10:00N 34°31' E 134°39'714.7
2017-Dec-04 09:30N 34°33' E 134°47'715.0
2017-Dec-04 09:01N 34°36' E 134°56'612.4
2017-Dec-04 08:30N 34°36' E 135°03'713.3
2017-Dec-04 08:00N 34°36' E 135°11'713.9
2017-Dec-04 07:30N 34°36' E 135°20'611.9
2017-Dec-04 07:01N 34°35' E 135°27'0 0.9
2017-Dec-04 06:30N 34°34' E 135°27'0 0.0
2017-Dec-04 05:56N 34°34' E 135°27'0 0.0
2017-Dec-04 05:29N 34°34' E 135°27'0 0.0
2017-Dec-04 04:59N 34°34' E 135°27'0 0.0
2017-Dec-04 04:29N 34°34' E 135°27'0 0.0
2017-Dec-04 03:59N 34°34' E 135°27'0 0.0
2017-Dec-04 03:29N 34°34' E 135°27'0 0.0
2017-Dec-04 02:59N 34°34' E 135°27'0 0.0
2017-Dec-04 02:29N 34°34' E 135°27'0 0.0
2017-Dec-04 01:59N 34°34' E 135°27'0 0.0
2017-Dec-04 01:29N 34°34' E 135°27'0 0.0
2017-Dec-04 00:59N 34°34' E 135°27'0 0.0
2017-Dec-04 00:29N 34°34' E 135°27'0 0.0
2017-Dec-03 23:56N 34°34' E 135°27'0 0.5
2017-Dec-03 23:29N 34°35' E 135°27'510.0
2017-Dec-03 23:01N 34°36' E 135°21'3 6.0
2017-Dec-03 22:27N 34°35' E 135°18'0 0.0
2017-Dec-03 22:00N 34°35' E 135°18'0 0.0
2017-Dec-03 21:30N 34°35' E 135°18'0 0.0
2017-Dec-03 21:00N 34°35' E 135°18'0 0.0
2017-Dec-03 20:30N 34°35' E 135°18'0 0.0
2017-Dec-03 20:00N 34°35' E 135°18'0 0.0
2017-Dec-03 19:30N 34°35' E 135°18'0 0.0
2017-Dec-03 19:00N 34°35' E 135°18'0 0.0
2017-Dec-03 18:30N 34°35' E 135°18'0 0.0
2017-Dec-03 18:00N 34°35' E 135°18'5 9.4
2017-Dec-03 17:31N 34°35' E 135°12'815.2
2017-Dec-03 17:00N 34°36' E 135°03'816.6
2017-Dec-03 16:30N 34°34' E 134°53'815.6
2017-Dec-03 16:00N 34°31' E 134°45'714.5
2017-Dec-03 15:30N 34°28' E 134°36'814.4
2017-Dec-03 14:55N 34°25' E 134°27'814.4
2017-Dec-03 14:20N 34°24' E 134°17'7913.0
2017-Dec-03 08:14N 33°60' E 132°45'313.8
2017-Dec-03 08:00N 33°57' E 132°43'713.3
2017-Dec-03 07:30N 33°54' E 132°36'1013.6
2017-Dec-03 06:45N 33°50' E 132°24'613.4
2017-Dec-03 06:19N 33°50' E 132°18'513.6
2017-Dec-03 05:58N 33°50' E 132°12'613.1
2017-Dec-03 05:29N 33°46' E 132°06'1513.5
2017-Dec-03 04:22N 33°47' E 131°47'614.8
2017-Dec-03 04:00N 33°48' E 131°41'714.9
2017-Dec-03 03:30N 33°50' E 131°32'714.6
2017-Dec-03 03:00N 33°51' E 131°24'714.7
2017-Dec-03 02:31N 33°52' E 131°15'714.3
2017-Dec-03 02:01N 33°55' E 131°07'713.5
2017-Dec-03 01:31N 33°58' E 131°00'510.8
2017-Dec-03 01:00N 33°55' E 130°56'2 4.5
2017-Dec-03 00:30N 33°54' E 130°53'0 0.0
2017-Dec-03 00:00N 33°54' E 130°53'0 0.0
2017-Dec-02 23:28N 33°54' E 130°53'0 0.0
2017-Dec-02 22:58N 33°54' E 130°53'0 0.0
2017-Dec-02 22:28N 33°54' E 130°53'0 0.0
2017-Dec-02 21:58N 33°54' E 130°53'0 0.0
2017-Dec-02 21:22N 33°54' E 130°53'0 0.0
2017-Dec-02 20:58N 33°54' E 130°53'0 0.0
2017-Dec-02 20:28N 33°54' E 130°53'0 0.0
2017-Dec-02 19:58N 33°54' E 130°53'0 0.0
2017-Dec-02 19:28N 33°54' E 130°53'0 0.0
2017-Dec-02 18:58N 33°54' E 130°53'0 0.0
2017-Dec-02 18:28N 33°54' E 130°53'0 0.0
2017-Dec-02 17:58N 33°54' E 130°53'0 0.0
2017-Dec-02 17:25N 33°54' E 130°53'0 0.0
2017-Dec-02 16:58N 33°54' E 130°53'0 0.0
2017-Dec-02 16:28N 33°54' E 130°53'0 0.0
2017-Dec-02 15:55N 33°54' E 130°53'0 0.0
2017-Dec-02 15:28N 33°54' E 130°53'0 0.0
2017-Dec-02 14:58N 33°54' E 130°53'0 0.0
2017-Dec-02 14:28N 33°54' E 130°53'0 0.0
2017-Dec-02 13:58N 33°54' E 130°53'0 0.0
2017-Dec-02 13:28N 33°54' E 130°53'0 0.0
2017-Dec-02 12:58N 33°54' E 130°53'0 0.0
2017-Dec-02 12:28N 33°54' E 130°53'0 0.0
2017-Dec-02 11:58N 33°54' E 130°53'0 0.0
2017-Dec-02 11:28N 33°54' E 130°53'0 0.0
2017-Dec-02 10:58N 33°54' E 130°53'0 0.0
2017-Dec-02 10:28N 33°54' E 130°53'0 0.0
2017-Dec-02 09:58N 33°54' E 130°53'0 0.0
2017-Dec-02 09:28N 33°54' E 130°53'0 0.0
2017-Dec-02 08:58N 33°54' E 130°53'0 0.0
2017-Dec-02 08:25N 33°54' E 130°53'0 0.0
2017-Dec-02 07:58N 33°54' E 130°53'0 0.0
2017-Dec-02 07:28N 33°54' E 130°53'0 0.0
2017-Dec-02 06:58N 33°54' E 130°53'0 0.0
2017-Dec-02 06:28N 33°54' E 130°53'0 0.0
2017-Dec-02 05:58N 33°54' E 130°53'0 0.1
2017-Dec-02 05:31N 33°54' E 130°53'4 8.0
2017-Dec-02 05:00N 33°57' E 130°56'5 9.3
2017-Dec-02 04:30N 33°58' E 131°02'713.1
2017-Dec-02 04:00N 33°55' E 131°08'713.1
2017-Dec-02 03:30N 33°52' E 131°16'713.4
2017-Dec-02 03:00N 33°51' E 131°24'713.5
2017-Dec-02 02:30N 33°49' E 131°32'713.4
2017-Dec-02 02:00N 33°48' E 131°40'713.5
2017-Dec-02 01:29N 33°47' E 131°48'1113.8
2017-Dec-02 00:41N 33°46' E 132°01'313.9
2017-Dec-02 00:30N 33°46' E 132°04'714.1
2017-Dec-02 00:00N 33°49' E 132°11'1413.5
2017-Dec-01 22:56N 33°52' E 132°28'613.2
2017-Dec-01 22:30N 33°54' E 132°35'612.1
2017-Dec-01 22:00N 33°57' E 132°41'7811.9
2017-Dec-01 15:25N 34°26' E 134°09'1312.0
2017-Dec-01 14:20N 34°26' E 134°25'513.7
2017-Dec-01 13:56N 34°28' E 134°31'613.5
2017-Dec-01 13:30N 34°30' E 134°38'713.3
2017-Dec-01 13:00N 34°32' E 134°45'713.5
2017-Dec-01 12:30N 34°35' E 134°53'  
Track history (hours):
 
Tides and Currents Weather Stations Pressure Air Temp Water Temp Dewpoint Dewpoint Depression Visibility Wind Speed Wind Dir Waves Ship Positions

Sensho

Last reported at 2017-Dec-11 12:27 UTC. Time now 2017-Dec-12 12:30 UTC.
Position N 33°59' E 132°45'.

Length 81 m; draft 4 m.

Type: Cargo ship. MMSI: 431100886.

Date/timePositionNaut miles runAvg speedWind from/ knotsBaromVisibWave heightAir tempDewpointWater temp
2017-Dec-11 12:27N 33°59' E 132°45'612.6
2017-Dec-11 12:00N 33°55' E 132°39'1313.3
2017-Dec-11 11:00N 33°50' E 132°24'613.3
2017-Dec-11 10:30N 33°50' E 132°17'912.9
2017-Dec-11 09:51N 33°47' E 132°07'613.7
2017-Dec-11 09:23N 33°45' E 131°60'1114.2
2017-Dec-11 08:36N 33°46' E 131°47'114.3
2017-Dec-11 08:30N 33°47' E 131°45'714.4
2017-Dec-11 08:00N 33°48' E 131°36'714.3
2017-Dec-11 07:30N 33°50' E 131°28'714.4
2017-Dec-11 07:01N 33°51' E 131°20'713.9
2017-Dec-11 06:31N 33°53' E 131°12'713.7
2017-Dec-11 06:01N 33°57' E 131°04'611.5
2017-Dec-11 05:31N 33°58' E 130°58'510.7
2017-Dec-11 05:01N 33°54' E 130°53'0 0.4
2017-Dec-11 04:30N 33°54' E 130°53'0 0.0
2017-Dec-11 04:00N 33°54' E 130°53'0 0.0
2017-Dec-11 03:30N 33°54' E 130°53'0 0.0
2017-Dec-11 03:00N 33°54' E 130°53'0 0.0
2017-Dec-11 02:30N 33°54' E 130°53'0 0.0
2017-Dec-11 02:00N 33°54' E 130°53'0 0.0
2017-Dec-11 01:30N 33°54' E 130°53'0 0.0
2017-Dec-11 01:00N 33°54' E 130°53'0 0.0
2017-Dec-11 00:30N 33°54' E 130°53'0 0.0
2017-Dec-11 00:00N 33°54' E 130°53'0 0.0
2017-Dec-10 23:30N 33°54' E 130°53'0 0.0
2017-Dec-10 23:00N 33°54' E 130°53'0 0.0
2017-Dec-10 22:30N 33°54' E 130°53'3 5.6
2017-Dec-10 22:00N 33°55' E 130°56'510.1
2017-Dec-10 21:30N 33°59' E 131°00'612.2
2017-Dec-10 21:01N 33°55' E 131°06'612.2
2017-Dec-10 20:30N 33°53' E 131°13'612.2
2017-Dec-10 20:00N 33°51' E 131°20'612.2
2017-Dec-10 19:30N 33°50' E 131°28'612.1
2017-Dec-10 19:01N 33°49' E 131°35'612.3
2017-Dec-10 18:29N 33°48' E 131°42'612.6
2017-Dec-10 18:00N 33°47' E 131°49'1012.8
2017-Dec-10 17:15N 33°46' E 132°01'913.1
2017-Dec-10 16:34N 33°49' E 132°11'913.4
2017-Dec-10 15:55N 33°50' E 132°21'613.3
2017-Dec-10 15:29N 33°52' E 132°28'713.7
2017-Dec-10 15:00N 33°54' E 132°35'713.5
2017-Dec-10 14:31N 33°58' E 132°42'7312.2
2017-Dec-10 08:33N 34°27' E 134°02'812.6
2017-Dec-10 07:55N 34°25' E 134°12'813.2
2017-Dec-10 07:19N 34°25' E 134°22'514.2
2017-Dec-10 06:58N 34°27' E 134°27'714.2
2017-Dec-10 06:29N 34°30' E 134°35'714.4
2017-Dec-10 06:00N 34°32' E 134°43'815.7
2017-Dec-10 05:30N 34°35' E 134°52'816.0
2017-Dec-10 05:01N 34°37' E 135°01'714.8
2017-Dec-10 04:30N 34°36' E 135°10'713.9
2017-Dec-10 04:01N 34°36' E 135°18'713.4
2017-Dec-10 03:30N 34°35' E 135°26'1 2.0
2017-Dec-10 03:00N 34°34' E 135°27'0 0.0
2017-Dec-10 02:27N 34°34' E 135°27'0 0.0
2017-Dec-10 01:57N 34°34' E 135°27'0 0.0
2017-Dec-10 01:30N 34°34' E 135°27'0 0.0
2017-Dec-10 01:00N 34°34' E 135°27'0 0.0
2017-Dec-10 00:30N 34°34' E 135°27'0 0.0
2017-Dec-10 00:00N 34°34' E 135°27'0 0.0
2017-Dec-09 23:27N 34°34' E 135°27'0 0.0
2017-Dec-09 22:57N 34°34' E 135°27'0 0.0
2017-Dec-09 22:30N 34°34' E 135°27'0 0.0
2017-Dec-09 22:00N 34°34' E 135°27'0 0.0
2017-Dec-09 21:27N 34°34' E 135°27'0 0.0
2017-Dec-09 20:57N 34°34' E 135°27'0 0.0
2017-Dec-09 20:27N 34°34' E 135°27'0 0.0
2017-Dec-09 19:57N 34°34' E 135°27'0 0.0
2017-Dec-09 19:30N 34°34' E 135°27'0 0.0
2017-Dec-09 19:00N 34°34' E 135°27'0 0.0
2017-Dec-09 18:30N 34°34' E 135°27'0 0.0
2017-Dec-09 17:57N 34°34' E 135°27'0 0.0
2017-Dec-09 17:30N 34°34' E 135°27'0 0.0
2017-Dec-09 17:00N 34°34' E 135°27'0 0.0
2017-Dec-09 16:30N 34°34' E 135°27'0 0.0
2017-Dec-09 16:00N 34°34' E 135°27'0 0.0
2017-Dec-09 15:27N 34°34' E 135°27'0 0.0
2017-Dec-09 14:57N 34°34' E 135°27'0 0.0
2017-Dec-09 14:30N 34°34' E 135°27'0 0.0
2017-Dec-09 14:00N 34°34' E 135°27'0 0.0
2017-Dec-09 13:30N 34°34' E 135°27'0 0.0
2017-Dec-09 13:00N 34°34' E 135°27'0 0.0
2017-Dec-09 12:30N 34°34' E 135°27'0 0.0
2017-Dec-09 11:57N 34°34' E 135°27'0 0.0
2017-Dec-09 11:27N 34°34' E 135°27'0 0.0
2017-Dec-09 11:00N 34°34' E 135°27'0 0.0
2017-Dec-09 10:30N 34°34' E 135°27'0 0.0
2017-Dec-09 09:57N 34°34' E 135°27'0 0.0
2017-Dec-09 09:27N 34°34' E 135°27'0 0.0
2017-Dec-09 08:57N 34°34' E 135°27'0 0.0
2017-Dec-09 08:21N 34°34' E 135°27'0 0.0
2017-Dec-09 07:57N 34°34' E 135°27'0 0.0
2017-Dec-09 07:27N 34°34' E 135°27'0 0.0
2017-Dec-09 06:54N 34°34' E 135°27'0 0.0
2017-Dec-09 06:27N 34°34' E 135°27'0 0.0
2017-Dec-09 05:57N 34°34' E 135°27'0 0.0
2017-Dec-09 05:27N 34°34' E 135°27'0 0.0
2017-Dec-09 05:00N 34°34' E 135°27'0 0.0
2017-Dec-09 04:30N 34°34' E 135°27'0 0.0
2017-Dec-09 04:00N 34°34' E 135°27'0 0.0
2017-Dec-09 03:27N 34°34' E 135°27'0 0.0
2017-Dec-09 03:00N 34°34' E 135°27'0 0.0
2017-Dec-09 02:27N 34°34' E 135°27'0 0.0
2017-Dec-09 01:57N 34°34' E 135°27'0 0.0
2017-Dec-09 01:30N 34°34' E 135°27'0 0.0
2017-Dec-09 00:57N 34°34' E 135°27'0 0.0
2017-Dec-09 00:30N 34°34' E 135°27'0 0.0
2017-Dec-08 23:57N 34°34' E 135°27'0 0.0
2017-Dec-08 23:30N 34°34' E 135°27'0 0.0
2017-Dec-08 22:57N 34°34' E 135°27'0 0.0
2017-Dec-08 22:27N 34°34' E 135°27'0 0.0
2017-Dec-08 22:00N 34°34' E 135°27'0 0.0
2017-Dec-08 21:27N 34°34' E 135°27'0 0.0
2017-Dec-08 20:57N 34°34' E 135°27'0 0.0
2017-Dec-08 20:30N 34°34' E 135°27'0 0.0
2017-Dec-08 20:00N 34°34' E 135°27'0 0.0
2017-Dec-08 19:30N 34°34' E 135°27'0 0.0
2017-Dec-08 18:57N 34°34' E 135°27'0 0.0
2017-Dec-08 18:30N 34°34' E 135°27'0 0.0
2017-Dec-08 17:57N 34°34' E 135°27'0 0.0
2017-Dec-08 17:30N 34°34' E 135°27'0 0.0
2017-Dec-08 16:54N 34°34' E 135°27'0 0.0
2017-Dec-08 16:30N 34°34' E 135°27'0 0.0
2017-Dec-08 16:00N 34°34' E 135°27'0 0.0
2017-Dec-08 15:30N 34°34' E 135°27'0 0.0
2017-Dec-08 15:00N 34°34' E 135°27'0 0.0
2017-Dec-08 14:30N 34°34' E 135°27'0 0.0
2017-Dec-08 14:00N 34°34' E 135°27'0 0.0
2017-Dec-08 13:30N 34°34' E 135°27'0 0.0
2017-Dec-08 12:57N 34°34' E 135°27'0 0.0
2017-Dec-08 12:30N 34°34' E 135°27'0 0.0
2017-Dec-08 11:57N 34°34' E 135°27'0 0.0
2017-Dec-08 11:27N 34°34' E 135°27'0 0.0
2017-Dec-08 11:00N 34°34' E 135°27'0 0.0
2017-Dec-08 10:30N 34°34' E 135°27'0 0.0
2017-Dec-08 10:00N 34°34' E 135°27'0 0.0
2017-Dec-08 09:30N 34°34' E 135°27'0 0.0
2017-Dec-08 09:00N 34°34' E 135°27'0 0.0
2017-Dec-08 08:30N 34°34' E 135°27'0 0.0
2017-Dec-08 08:00N 34°34' E 135°27'0 0.0
2017-Dec-08 07:30N 34°34' E 135°27'0 0.0
2017-Dec-08 07:00N 34°34' E 135°27'0 0.0
2017-Dec-08 06:27N 34°34' E 135°27'0 0.0
2017-Dec-08 05:57N 34°34' E 135°27'0 0.0
2017-Dec-08 05:30N 34°34' E 135°27'0 0.0
2017-Dec-08 05:00N 34°34' E 135°27'0 0.0
2017-Dec-08 04:30N 34°34' E 135°27'0 0.0
2017-Dec-08 04:00N 34°34' E 135°27'0 0.0
2017-Dec-08 03:30N 34°34' E 135°27'0 0.0
2017-Dec-08 03:00N 34°34' E 135°27'0 0.0
2017-Dec-08 02:30N 34°34' E 135°27'0 0.0
2017-Dec-08 02:00N 34°34' E 135°27'0 0.0
2017-Dec-08 01:30N 34°34' E 135°27'0 0.0
2017-Dec-08 01:00N 34°34' E 135°27'1 3.0
2017-Dec-08 00:31N 34°35' E 135°26'612.7
2017-Dec-08 00:00N 34°36' E 135°18'714.0
2017-Dec-07 23:30N 34°35' E 135°09'713.9
2017-Dec-07 23:01N 34°37' E 135°01'713.6
2017-Dec-07 22:30N 34°34' E 134°53'714.6
2017-Dec-07 22:00N 34°31' E 134°45'714.4
2017-Dec-07 21:30N 34°29' E 134°37'9713.7
2017-Dec-07 14:25N 33°60' E 132°45'614.9
2017-Dec-07 14:00N 33°56' E 132°40'1414.8
2017-Dec-07 13:06N 33°50' E 132°25'115.1
2017-Dec-07 13:00N 33°50' E 132°23'914.6
2017-Dec-07 12:22N 33°50' E 132°12'614.6
2017-Dec-07 11:57N 33°46' E 132°06'1213.4
2017-Dec-07 11:03N 33°46' E 131°51'114.1
2017-Dec-07 11:00N 33°46' E 131°50'713.8
2017-Dec-07 10:30N 33°48' E 131°42'713.8
2017-Dec-07 10:00N 33°49' E 131°34'713.8
2017-Dec-07 09:30N 33°50' E 131°26'714.0
2017-Dec-07 09:01N 33°52' E 131°18'714.2
2017-Dec-07 08:30N 33°54' E 131°10'714.0
2017-Dec-07 08:00N 33°57' E 131°03'611.9
2017-Dec-07 07:30N 33°55' E 130°56'3 5.8
2017-Dec-07 07:00N 33°54' E 130°53'0 0.0
2017-Dec-07 06:29N 33°54' E 130°53'0 0.0
2017-Dec-07 05:59N 33°54' E 130°53'0 0.0
2017-Dec-07 05:29N 33°54' E 130°53'0 0.0
2017-Dec-07 04:59N 33°54' E 130°53'0 0.0
2017-Dec-07 04:20N 33°54' E 130°53'0 0.0
2017-Dec-07 03:59N 33°54' E 130°53'0 0.0
2017-Dec-07 03:26N 33°54' E 130°53'0 0.0
2017-Dec-07 02:59N 33°54' E 130°53'0 0.0
2017-Dec-07 02:26N 33°54' E 130°53'0 0.0
2017-Dec-07 01:59N 33°54' E 130°53'0 0.1
2017-Dec-07 01:30N 33°54' E 130°53'611.5
2017-Dec-07 01:01N 33°58' E 130°58'713.1
2017-Dec-07 00:31N 33°56' E 131°05'714.8
2017-Dec-07 00:00N 33°53' E 131°13'815.1
2017-Dec-06 23:30N 33°52' E 131°22'815.0
2017-Dec-06 23:00N 33°50' E 131°31'815.1
2017-Dec-06 22:30N 33°49' E 131°40'814.9
2017-Dec-06 22:00N 33°47' E 131°49'1114.5
2017-Dec-06 21:15N 33°46' E 132°02'714.6
2017-Dec-06 20:44N 33°49' E 132°10'  
2017-Dec-04 10:28N 34°28' E 134°32'714.5
2017-Dec-04 10:00N 34°31' E 134°39'714.7
2017-Dec-04 09:30N 34°33' E 134°47'715.0
2017-Dec-04 09:01N 34°36' E 134°56'612.4
2017-Dec-04 08:30N 34°36' E 135°03'713.3
2017-Dec-04 08:00N 34°36' E 135°11'713.9
2017-Dec-04 07:30N 34°36' E 135°20'611.9
2017-Dec-04 07:01N 34°35' E 135°27'0 0.9
2017-Dec-04 06:30N 34°34' E 135°27'0 0.0
2017-Dec-04 05:56N 34°34' E 135°27'0 0.0
2017-Dec-04 05:29N 34°34' E 135°27'0 0.0
2017-Dec-04 04:59N 34°34' E 135°27'0 0.0
2017-Dec-04 04:29N 34°34' E 135°27'0 0.0
2017-Dec-04 03:59N 34°34' E 135°27'0 0.0
2017-Dec-04 03:29N 34°34' E 135°27'0 0.0
2017-Dec-04 02:59N 34°34' E 135°27'0 0.0
2017-Dec-04 02:29N 34°34' E 135°27'0 0.0
2017-Dec-04 01:59N 34°34' E 135°27'0 0.0
2017-Dec-04 01:29N 34°34' E 135°27'0 0.0
2017-Dec-04 00:59N 34°34' E 135°27'0 0.0
2017-Dec-04 00:29N 34°34' E 135°27'0 0.0
2017-Dec-03 23:56N 34°34' E 135°27'0 0.5
2017-Dec-03 23:29N 34°35' E 135°27'510.0
2017-Dec-03 23:01N 34°36' E 135°21'3 6.0
2017-Dec-03 22:27N 34°35' E 135°18'0 0.0
2017-Dec-03 22:00N 34°35' E 135°18'0 0.0
2017-Dec-03 21:30N 34°35' E 135°18'0 0.0
2017-Dec-03 21:00N 34°35' E 135°18'0 0.0
2017-Dec-03 20:30N 34°35' E 135°18'0 0.0
2017-Dec-03 20:00N 34°35' E 135°18'0 0.0
2017-Dec-03 19:30N 34°35' E 135°18'0 0.0
2017-Dec-03 19:00N 34°35' E 135°18'0 0.0
2017-Dec-03 18:30N 34°35' E 135°18'0 0.0
2017-Dec-03 18:00N 34°35' E 135°18'5 9.4
2017-Dec-03 17:31N 34°35' E 135°12'815.2
2017-Dec-03 17:00N 34°36' E 135°03'816.6
2017-Dec-03 16:30N 34°34' E 134°53'815.6
2017-Dec-03 16:00N 34°31' E 134°45'714.5
2017-Dec-03 15:30N 34°28' E 134°36'814.4
2017-Dec-03 14:55N 34°25' E 134°27'814.4
2017-Dec-03 14:20N 34°24' E 134°17'7913.0
2017-Dec-03 08:14N 33°60' E 132°45'313.8
2017-Dec-03 08:00N 33°57' E 132°43'713.3
2017-Dec-03 07:30N 33°54' E 132°36'1013.6
2017-Dec-03 06:45N 33°50' E 132°24'613.4
2017-Dec-03 06:19N 33°50' E 132°18'513.6
2017-Dec-03 05:58N 33°50' E 132°12'613.1
2017-Dec-03 05:29N 33°46' E 132°06'1513.5
2017-Dec-03 04:22N 33°47' E 131°47'614.8
2017-Dec-03 04:00N 33°48' E 131°41'714.9
2017-Dec-03 03:30N 33°50' E 131°32'714.6
2017-Dec-03 03:00N 33°51' E 131°24'714.7
2017-Dec-03 02:31N 33°52' E 131°15'714.3
2017-Dec-03 02:01N 33°55' E 131°07'713.5
2017-Dec-03 01:31N 33°58' E 131°00'510.8
2017-Dec-03 01:00N 33°55' E 130°56'2 4.5
2017-Dec-03 00:30N 33°54' E 130°53'0 0.0
2017-Dec-03 00:00N 33°54' E 130°53'0 0.0
2017-Dec-02 23:28N 33°54' E 130°53'0 0.0
2017-Dec-02 22:58N 33°54' E 130°53'0 0.0
2017-Dec-02 22:28N 33°54' E 130°53'0 0.0
2017-Dec-02 21:58N 33°54' E 130°53'0 0.0
2017-Dec-02 21:22N 33°54' E 130°53'0 0.0
2017-Dec-02 20:58N 33°54' E 130°53'0 0.0
2017-Dec-02 20:28N 33°54' E 130°53'0 0.0
2017-Dec-02 19:58N 33°54' E 130°53'0 0.0
2017-Dec-02 19:28N 33°54' E 130°53'0 0.0
2017-Dec-02 18:58N 33°54' E 130°53'0 0.0
2017-Dec-02 18:28N 33°54' E 130°53'0 0.0
2017-Dec-02 17:58N 33°54' E 130°53'0 0.0
2017-Dec-02 17:25N 33°54' E 130°53'0 0.0
2017-Dec-02 16:58N 33°54' E 130°53'0 0.0
2017-Dec-02 16:28N 33°54' E 130°53'0 0.0
2017-Dec-02 15:55N 33°54' E 130°53'0 0.0
2017-Dec-02 15:28N 33°54' E 130°53'0 0.0
2017-Dec-02 14:58N 33°54' E 130°53'0 0.0
2017-Dec-02 14:28N 33°54' E 130°53'0 0.0
2017-Dec-02 13:58N 33°54' E 130°53'0 0.0
2017-Dec-02 13:28N 33°54' E 130°53'0 0.0
2017-Dec-02 12:58N 33°54' E 130°53'0 0.0
2017-Dec-02 12:28N 33°54' E 130°53'0 0.0
2017-Dec-02 11:58N 33°54' E 130°53'0 0.0
2017-Dec-02 11:28N 33°54' E 130°53'0 0.0
2017-Dec-02 10:58N 33°54' E 130°53'0 0.0
2017-Dec-02 10:28N 33°54' E 130°53'0 0.0
2017-Dec-02 09:58N 33°54' E 130°53'0 0.0
2017-Dec-02 09:28N 33°54' E 130°53'0 0.0
2017-Dec-02 08:58N 33°54' E 130°53'0 0.0
2017-Dec-02 08:25N 33°54' E 130°53'0 0.0
2017-Dec-02 07:58N 33°54' E 130°53'0 0.0
2017-Dec-02 07:28N 33°54' E 130°53'0 0.0
2017-Dec-02 06:58N 33°54' E 130°53'0 0.0
2017-Dec-02 06:28N 33°54' E 130°53'0 0.0
2017-Dec-02 05:58N 33°54' E 130°53'0 0.1
2017-Dec-02 05:31N 33°54' E 130°53'4 8.0
2017-Dec-02 05:00N 33°57' E 130°56'5 9.3
2017-Dec-02 04:30N 33°58' E 131°02'713.1
2017-Dec-02 04:00N 33°55' E 131°08'713.1
2017-Dec-02 03:30N 33°52' E 131°16'713.4
2017-Dec-02 03:00N 33°51' E 131°24'713.5
2017-Dec-02 02:30N 33°49' E 131°32'713.4
2017-Dec-02 02:00N 33°48' E 131°40'713.5
2017-Dec-02 01:29N 33°47' E 131°48'1113.8
2017-Dec-02 00:41N 33°46' E 132°01'313.9
2017-Dec-02 00:30N 33°46' E 132°04'714.1
2017-Dec-02 00:00N 33°49' E 132°11'1413.5
2017-Dec-01 22:56N 33°52' E 132°28'613.2
2017-Dec-01 22:30N 33°54' E 132°35'612.1
2017-Dec-01 22:00N 33°57' E 132°41'7811.9
2017-Dec-01 15:25N 34°26' E 134°09'1312.0
2017-Dec-01 14:20N 34°26' E 134°25'513.7
2017-Dec-01 13:56N 34°28' E 134°31'613.5
2017-Dec-01 13:30N 34°30' E 134°38'713.3
2017-Dec-01 13:00N 34°32' E 134°45'713.5
2017-Dec-01 12:30N 34°35' E 134°53'  

Dump ship's entire track history